createdAt,value
2022-08-16T00:01:56.867Z,19.12
2022-08-16T00:04:28.609Z,19.16
2022-08-16T00:06:57.901Z,19.12
2022-08-16T00:09:25.873Z,19.24
2022-08-16T00:11:55.559Z,19.13
2022-08-16T00:14:30.500Z,19.11
2022-08-16T00:17:15.656Z,19.16
2022-08-16T00:19:49.028Z,19.11
2022-08-16T00:22:24.823Z,19.36
2022-08-16T00:24:54.728Z,19.40
2022-08-16T00:27:23.095Z,19.45
2022-08-16T00:30:00.504Z,19.43
2022-08-16T00:32:32.924Z,19.48
2022-08-16T00:35:01.840Z,19.50
2022-08-16T00:37:58.173Z,19.48
2022-08-16T00:40:34.486Z,19.49
2022-08-16T00:43:05.305Z,19.30
2022-08-16T00:45:57.950Z,19.24
2022-08-16T00:48:28.695Z,19.27
2022-08-16T00:50:59.765Z,19.24
2022-08-16T00:53:30.669Z,19.01
2022-08-16T00:56:05.248Z,19.13
2022-08-16T00:58:36.083Z,19.18
2022-08-16T01:01:08.582Z,19.06
2022-08-16T01:03:41.348Z,18.97
2022-08-16T01:06:39.963Z,19.00
2022-08-16T01:09:04.763Z,19.00
2022-08-16T01:11:33.988Z,18.98
2022-08-16T01:14:06.900Z,19.00
2022-08-16T01:16:36.065Z,18.94
2022-08-16T01:19:11.345Z,18.97
2022-08-16T01:21:45.091Z,18.96
2022-08-16T01:24:51.753Z,19.01
2022-08-16T01:27:22.701Z,19.05
2022-08-16T01:29:58.006Z,18.93
2022-08-16T01:32:33.797Z,19.02
2022-08-16T01:35:07.315Z,19.01
2022-08-16T01:37:43.432Z,19.04
2022-08-16T01:40:16.179Z,19.07
2022-08-16T01:42:48.137Z,19.02
2022-08-16T01:45:19.640Z,19.04
2022-08-16T01:47:52.034Z,19.15
2022-08-16T01:51:05.105Z,19.05
2022-08-16T01:53:11.945Z,19.00
2022-08-16T01:56:01.480Z,18.98
2022-08-16T01:58:33.209Z,18.91
2022-08-16T02:01:01.378Z,18.89
2022-08-16T02:03:30.588Z,18.92
2022-08-16T02:05:58.404Z,18.99
2022-08-16T02:08:33.719Z,19.04
2022-08-16T02:11:07.958Z,18.79
2022-08-16T02:13:36.075Z,18.77
2022-08-16T02:16:18.580Z,18.70
2022-08-16T02:18:47.806Z,18.57
2022-08-16T02:21:17.048Z,18.55
2022-08-16T02:23:59.942Z,18.52
2022-08-16T02:26:29.591Z,18.50
2022-08-16T02:29:02.698Z,18.45
2022-08-16T02:32:03.616Z,18.39
2022-08-16T02:34:20.232Z,18.30
2022-08-16T02:37:00.970Z,18.28
2022-08-16T02:39:30.273Z,18.20
2022-08-16T02:42:00.333Z,18.16
2022-08-16T02:44:28.593Z,18.09
2022-08-16T02:46:57.752Z,18.05
2022-08-16T02:49:32.209Z,17.95
2022-08-16T02:52:24.891Z,17.95
2022-08-16T02:55:02.545Z,17.83
2022-08-16T02:57:33.578Z,17.94
2022-08-16T03:00:34.114Z,17.89
2022-08-16T03:02:56.419Z,17.96
2022-08-16T03:05:25.741Z,17.93
2022-08-16T03:07:59.334Z,17.89
2022-08-16T03:10:33.240Z,17.81
2022-08-16T03:13:04.112Z,17.79
2022-08-16T03:15:41.026Z,17.72
2022-08-16T03:18:12.419Z,17.67
2022-08-16T03:20:46.966Z,17.59
2022-08-16T03:23:23.860Z,17.61
2022-08-16T03:25:51.703Z,17.53
2022-08-16T03:28:22.120Z,17.51
2022-08-16T03:30:52.546Z,17.45
2022-08-16T03:33:23.866Z,17.33
2022-08-16T03:35:59.231Z,17.31
2022-08-16T03:38:47.621Z,17.38
2022-08-16T03:41:25.220Z,17.42
2022-08-16T03:44:00.548Z,17.35
2022-08-16T03:46:47.185Z,17.33
2022-08-16T03:49:23.563Z,17.36
2022-08-16T03:52:07.539Z,17.25
2022-08-16T03:54:37.620Z,17.29
2022-08-16T03:57:06.612Z,17.17
2022-08-16T03:59:43.499Z,17.17
2022-08-16T04:02:22.415Z,17.22
2022-08-16T04:05:00.024Z,17.18
2022-08-16T04:07:33.503Z,17.20
2022-08-16T04:10:35.926Z,17.36
2022-08-16T04:12:53.705Z,17.45
2022-08-16T04:15:35.168Z,17.62
2022-08-16T04:18:14.479Z,17.53
2022-08-16T04:20:43.049Z,17.32
2022-08-16T04:23:11.180Z,17.20
2022-08-16T04:25:41.722Z,17.33
2022-08-16T04:28:29.218Z,17.06
2022-08-16T04:31:07.412Z,17.06
2022-08-16T04:33:51.074Z,16.96
2022-08-16T04:36:21.671Z,16.87
2022-08-16T04:38:50.152Z,16.88
2022-08-16T04:41:20.413Z,16.78
2022-08-16T04:44:01.720Z,16.87
2022-08-16T04:47:02.735Z,16.95
2022-08-16T04:49:19.000Z,17.18
2022-08-16T04:51:53.894Z,17.33
2022-08-16T04:54:23.519Z,17.33
2022-08-16T04:56:51.453Z,17.35
2022-08-16T04:59:22.133Z,17.48
2022-08-16T05:01:59.168Z,17.48
2022-08-16T05:04:30.032Z,17.65
2022-08-16T05:06:58.703Z,17.59
2022-08-16T05:09:58.357Z,17.56
2022-08-16T05:12:30.487Z,17.67
2022-08-16T05:15:01.947Z,17.79
2022-08-16T05:17:32.782Z,17.91
2022-08-16T05:20:35.138Z,17.73
2022-08-16T05:22:53.678Z,17.79
2022-08-16T05:25:24.177Z,17.57
2022-08-16T05:28:10.754Z,17.67
2022-08-16T05:30:43.993Z,17.35
2022-08-16T05:33:22.934Z,17.39
2022-08-16T05:35:55.513Z,17.43
2022-08-16T05:38:40.082Z,17.34
2022-08-16T05:41:13.793Z,17.44
2022-08-16T05:43:46.839Z,17.60
2022-08-16T05:46:29.442Z,17.68
2022-08-16T05:49:08.871Z,17.86
2022-08-16T05:51:41.498Z,18.11
2022-08-16T05:54:11.310Z,18.21
2022-08-16T05:56:39.718Z,18.23
2022-08-16T05:59:08.544Z,18.52
2022-08-16T06:01:38.271Z,18.50
2022-08-16T06:04:13.341Z,18.47
2022-08-16T06:06:57.641Z,18.51
2022-08-16T06:09:42.581Z,18.63
2022-08-16T06:12:11.597Z,18.64
2022-08-16T06:14:40.089Z,18.74
2022-08-16T06:17:08.663Z,18.92
2022-08-16T06:19:45.350Z,19.11
2022-08-16T06:22:37.173Z,19.27
2022-08-16T06:25:04.509Z,19.34
2022-08-16T06:27:39.476Z,19.34
2022-08-16T06:30:10.653Z,19.42
2022-08-16T06:32:42.920Z,19.50
2022-08-16T06:35:13.579Z,19.59
2022-08-16T06:37:42.978Z,19.77
2022-08-16T06:40:15.913Z,19.72
2022-08-16T06:42:54.012Z,19.91
2022-08-16T06:45:51.307Z,20.03
2022-08-16T06:48:32.269Z,20.20
2022-08-16T06:51:03.866Z,20.38
2022-08-16T06:53:35.461Z,20.45
2022-08-16T06:56:14.919Z,20.60
2022-08-16T06:59:04.297Z,20.75
2022-08-16T07:01:43.446Z,20.85
2022-08-16T07:04:31.824Z,20.90
2022-08-16T07:07:05.570Z,20.95
2022-08-16T07:09:33.956Z,21.02
2022-08-16T07:12:03.535Z,21.15
2022-08-16T07:14:35.385Z,21.16
2022-08-16T07:17:07.903Z,21.23
2022-08-16T07:20:02.962Z,21.39
2022-08-16T07:22:37.834Z,21.48
2022-08-16T07:25:16.674Z,21.50
2022-08-16T07:27:45.064Z,21.56
2022-08-16T07:30:39.126Z,21.68
2022-08-16T07:33:09.364Z,21.59
2022-08-16T07:35:44.555Z,21.51
2022-08-16T07:38:20.285Z,21.64
2022-08-16T07:41:10.309Z,21.72
2022-08-16T07:43:43.506Z,21.86
2022-08-16T07:46:39.437Z,21.91
2022-08-16T07:49:11.180Z,21.81
2022-08-16T07:51:40.368Z,21.98
2022-08-16T07:54:20.858Z,21.86
2022-08-16T07:56:51.517Z,22.07
2022-08-16T07:59:21.211Z,22.18
2022-08-16T08:01:53.085Z,22.01
2022-08-16T08:04:22.066Z,22.15
2022-08-16T08:06:52.090Z,22.36
2022-08-16T08:09:21.787Z,22.44
2022-08-16T08:12:00.941Z,22.35
2022-08-16T08:14:34.394Z,22.32
2022-08-16T08:17:02.957Z,22.37
2022-08-16T08:19:33.535Z,22.44
2022-08-16T08:22:05.924Z,22.59
2022-08-16T08:25:05.799Z,22.67
2022-08-16T08:27:35.268Z,22.95
2022-08-16T08:30:49.205Z,23.11
2022-08-16T08:33:00.345Z,23.08
2022-08-16T08:35:37.395Z,23.14
2022-08-16T08:38:08.331Z,23.28
2022-08-16T08:40:40.533Z,23.11
2022-08-16T08:43:18.254Z,23.27
2022-08-16T08:45:59.938Z,23.27
2022-08-16T08:48:34.000Z,23.28
2022-08-16T08:51:08.685Z,23.51
2022-08-16T08:53:43.864Z,23.63
2022-08-16T08:56:15.652Z,23.78
2022-08-16T08:58:54.304Z,24.08
2022-08-16T09:01:36.990Z,23.96
2022-08-16T09:04:24.137Z,23.96
2022-08-16T09:06:53.516Z,23.98
2022-08-16T09:09:22.484Z,23.85
2022-08-16T09:12:05.987Z,23.79
2022-08-16T09:14:49.331Z,24.03
2022-08-16T09:17:45.351Z,24.28
2022-08-16T09:20:09.378Z,24.47
2022-08-16T09:22:42.234Z,24.84
2022-08-16T09:25:13.077Z,24.97
2022-08-16T09:27:56.450Z,25.25
2022-08-16T09:30:34.342Z,25.43
2022-08-16T09:33:11.316Z,25.28
2022-08-16T09:35:39.495Z,25.66
2022-08-16T09:38:12.179Z,25.46
2022-08-16T09:40:42.581Z,25.36
2022-08-16T09:43:37.758Z,25.00
2022-08-16T09:46:02.767Z,25.24
2022-08-16T09:48:44.215Z,25.18
2022-08-16T09:51:14.111Z,25.60
2022-08-16T09:53:43.193Z,25.87
2022-08-16T09:56:21.880Z,25.80
2022-08-16T09:59:05.509Z,26.04
2022-08-16T10:01:36.629Z,26.01
2022-08-16T10:04:08.257Z,25.83
2022-08-16T10:06:53.867Z,25.94
2022-08-16T10:09:21.763Z,25.99
2022-08-16T10:12:11.652Z,26.33
2022-08-16T10:14:48.719Z,25.79
2022-08-16T10:17:17.155Z,25.91
2022-08-16T10:19:47.049Z,25.87
2022-08-16T10:22:18.352Z,26.21
2022-08-16T10:24:55.959Z,26.57
2022-08-16T10:27:45.824Z,26.70
2022-08-16T10:30:26.069Z,26.34
2022-08-16T10:32:56.934Z,26.47
2022-08-16T10:35:33.011Z,26.56
2022-08-16T10:38:01.510Z,26.98
2022-08-16T10:40:30.606Z,27.48
2022-08-16T10:43:00.358Z,27.01
2022-08-16T10:45:37.052Z,26.67
2022-08-16T10:48:27.438Z,26.32
2022-08-16T10:50:58.120Z,26.01
2022-08-16T10:53:27.227Z,25.74
2022-08-16T10:56:02.728Z,25.76
2022-08-16T10:58:34.122Z,25.85
2022-08-16T11:03:57.235Z,26.09
2022-08-16T11:06:26.821Z,25.88
2022-08-16T11:14:34.822Z,25.75
2022-08-16T11:17:10.572Z,26.21
2022-08-16T11:22:46.852Z,27.44
2022-08-16T11:28:08.225Z,27.83
2022-08-16T11:30:38.633Z,28.31
2022-08-16T11:33:10.740Z,28.76
2022-08-16T11:36:22.151Z,28.25
2022-08-16T11:38:51.846Z,27.74
2022-08-16T11:41:15.151Z,28.05
2022-08-16T11:43:43.126Z,28.45
2022-08-16T11:46:45.299Z,28.93
2022-08-16T11:49:03.569Z,29.36
2022-08-16T11:51:31.496Z,29.26
2022-08-16T11:53:59.467Z,28.47
2022-08-16T11:56:39.604Z,28.49
2022-08-16T11:59:15.188Z,27.93
2022-08-16T12:01:55.274Z,28.05
2022-08-16T12:04:28.759Z,28.19
2022-08-16T12:06:58.697Z,28.51
2022-08-16T12:09:29.502Z,28.44
2022-08-16T12:11:58.668Z,28.58
2022-08-16T12:14:35.095Z,28.33
2022-08-16T12:17:04.415Z,28.69
2022-08-16T12:19:35.806Z,28.95
2022-08-16T12:22:05.826Z,29.34
2022-08-16T12:24:50.915Z,29.50
2022-08-16T12:27:19.459Z,29.45
2022-08-16T12:29:47.326Z,28.52
2022-08-16T12:32:37.442Z,28.67
2022-08-16T12:35:06.649Z,29.04
2022-08-16T12:37:35.692Z,28.65
2022-08-16T12:40:07.100Z,28.98
2022-08-16T12:42:53.077Z,29.66
2022-08-16T12:45:23.827Z,29.61
2022-08-16T12:48:32.964Z,29.88
2022-08-16T12:51:01.635Z,30.54
2022-08-16T12:53:31.754Z,30.39
2022-08-16T12:56:00.444Z,31.16
2022-08-16T12:58:48.752Z,30.68
2022-08-16T13:01:16.362Z,30.65
2022-08-16T13:03:45.450Z,30.14
2022-08-16T13:06:20.258Z,29.96
2022-08-16T13:09:00.076Z,29.73
2022-08-16T13:11:35.485Z,29.74
2022-08-16T13:14:05.700Z,29.31
2022-08-16T13:16:33.537Z,29.04
2022-08-16T13:19:02.089Z,28.17
2022-08-16T13:21:31.385Z,28.13
2022-08-16T13:23:59.618Z,28.97
2022-08-16T13:26:32.047Z,29.51
2022-08-16T13:29:00.009Z,29.91
2022-08-16T13:31:27.963Z,29.94
2022-08-16T13:33:58.632Z,30.37
2022-08-16T13:39:18.115Z,29.25
2022-08-16T13:41:53.835Z,28.59
2022-08-16T13:44:22.503Z,28.11
2022-08-16T13:47:10.376Z,28.30
2022-08-16T13:49:38.198Z,28.85
2022-08-16T13:52:07.370Z,29.12
2022-08-16T13:54:36.656Z,29.49
2022-08-16T13:57:05.490Z,29.77
2022-08-16T13:59:33.559Z,30.01
2022-08-16T14:02:05.480Z,29.94
2022-08-16T14:04:36.533Z,29.94
2022-08-16T14:07:08.162Z,29.87
2022-08-16T14:09:38.323Z,29.49
2022-08-16T14:12:17.803Z,29.56
2022-08-16T14:14:46.776Z,29.67
2022-08-16T14:17:16.630Z,29.20
2022-08-16T14:19:46.102Z,29.49
2022-08-16T14:22:30.816Z,29.77
2022-08-16T14:25:03.106Z,29.86
2022-08-16T14:27:31.812Z,29.97
2022-08-16T14:30:01.324Z,29.86
2022-08-16T14:32:34.191Z,29.64
2022-08-16T14:35:04.208Z,29.99
2022-08-16T14:37:32.679Z,30.26
2022-08-16T14:40:03.051Z,30.21
2022-08-16T14:42:31.521Z,29.57
2022-08-16T14:45:00.407Z,29.28
2022-08-16T14:47:34.252Z,29.38
2022-08-16T14:50:03.314Z,29.16
2022-08-16T14:55:24.226Z,29.79
2022-08-16T14:57:52.777Z,30.32
2022-08-16T15:00:33.061Z,30.58
2022-08-16T15:03:04.822Z,30.12
2022-08-16T15:05:34.311Z,30.39
2022-08-16T15:08:03.485Z,30.45
2022-08-16T15:10:33.348Z,30.43
2022-08-16T15:13:01.888Z,30.58
2022-08-16T15:15:30.890Z,30.39
2022-08-16T15:18:01.825Z,30.28
2022-08-16T15:20:32.437Z,30.54
2022-08-16T15:23:02.713Z,30.14
2022-08-16T15:25:35.361Z,30.30
2022-08-16T15:28:06.231Z,30.42
2022-08-16T15:30:59.324Z,30.47
2022-08-16T15:33:29.132Z,30.16
2022-08-16T15:36:00.584Z,30.27
2022-08-16T15:38:55.180Z,30.13
2022-08-16T15:41:54.549Z,30.39
2022-08-16T15:44:24.209Z,30.67
2022-08-16T15:46:55.868Z,30.72
2022-08-16T15:49:37.565Z,30.58
2022-08-16T15:52:12.568Z,30.64
2022-08-16T15:54:53.014Z,30.72
2022-08-16T15:57:26.455Z,30.44
2022-08-16T15:59:56.127Z,30.52
2022-08-16T16:02:40.303Z,30.56
2022-08-16T16:05:10.423Z,30.80
2022-08-16T16:07:40.810Z,30.66
2022-08-16T16:10:29.359Z,30.87
2022-08-16T16:13:01.705Z,30.90
2022-08-16T16:15:33.683Z,30.75
2022-08-16T16:18:09.467Z,30.69
2022-08-16T16:20:39.617Z,30.71
2022-08-16T16:23:11.080Z,30.35
2022-08-16T16:25:43.562Z,30.09
2022-08-16T16:29:07.756Z,30.48
2022-08-16T16:31:05.729Z,30.24
2022-08-16T16:33:38.362Z,30.18
2022-08-16T16:36:10.086Z,30.11
2022-08-16T16:38:41.995Z,30.01
2022-08-16T16:41:11.254Z,29.98
2022-08-16T16:43:44.265Z,30.17
2022-08-16T16:46:40.229Z,30.36
2022-08-16T16:49:04.772Z,30.02
2022-08-16T16:51:35.748Z,29.77
2022-08-16T16:54:09.929Z,29.84
2022-08-16T16:56:45.960Z,30.06
2022-08-16T16:59:19.994Z,30.09
2022-08-16T17:02:00.332Z,30.09
2022-08-16T17:04:38.473Z,29.81
2022-08-16T17:07:07.862Z,29.84
2022-08-16T17:09:39.480Z,29.57
2022-08-16T17:12:09.033Z,29.47
2022-08-16T17:14:38.665Z,29.32
2022-08-16T17:17:11.696Z,29.28
2022-08-16T17:19:42.468Z,29.34
2022-08-16T17:22:14.377Z,29.31
2022-08-16T17:24:50.990Z,29.13
2022-08-16T17:27:33.854Z,29.09
2022-08-16T17:30:14.802Z,28.92
2022-08-16T17:32:47.064Z,28.78
2022-08-16T17:35:18.968Z,28.56
2022-08-16T17:37:50.857Z,28.41
2022-08-16T17:40:23.419Z,28.16
2022-08-16T17:43:10.259Z,28.06
2022-08-16T17:45:40.772Z,27.98
2022-08-16T17:48:08.986Z,27.86
2022-08-16T17:50:37.469Z,27.72
2022-08-16T17:53:07.382Z,27.50
2022-08-16T17:55:38.803Z,27.40
2022-08-16T17:58:20.149Z,27.13
2022-08-16T18:00:55.879Z,26.86
2022-08-16T18:04:03.183Z,26.61
2022-08-16T18:06:18.579Z,26.39
2022-08-16T18:08:48.852Z,26.22
2022-08-16T18:11:18.964Z,25.96
2022-08-16T18:13:55.849Z,25.69
2022-08-16T18:16:25.795Z,25.44
2022-08-16T18:18:53.980Z,25.27
2022-08-16T18:21:39.692Z,25.13
2022-08-16T18:24:07.914Z,24.87
2022-08-16T18:26:36.033Z,24.72
2022-08-16T18:29:04.360Z,24.58
2022-08-16T18:31:34.763Z,24.44
2022-08-16T18:34:02.723Z,24.34
2022-08-16T18:36:31.198Z,24.24
2022-08-16T18:38:59.620Z,24.10
2022-08-16T18:41:28.826Z,24.11
2022-08-16T18:44:26.080Z,23.99
2022-08-16T18:46:48.916Z,23.83
2022-08-16T18:49:19.321Z,23.73
2022-08-16T18:51:47.436Z,23.64
2022-08-16T18:54:18.247Z,23.50
2022-08-16T18:56:55.222Z,23.39
2022-08-16T18:59:25.796Z,23.40
2022-08-16T19:02:00.507Z,23.40
2022-08-16T19:04:55.962Z,23.37
2022-08-16T19:07:22.149Z,23.32
2022-08-16T19:09:50.122Z,23.26
2022-08-16T19:12:18.203Z,23.11
2022-08-16T19:15:08.565Z,22.97
2022-08-16T19:17:41.561Z,22.86
2022-08-16T19:20:11.274Z,22.70
2022-08-16T19:23:10.912Z,22.69
2022-08-16T19:25:48.826Z,22.55
2022-08-16T19:28:48.992Z,22.30
2022-08-16T19:31:12.275Z,22.19
2022-08-16T19:33:53.173Z,22.09
2022-08-16T19:36:31.980Z,22.07
2022-08-16T19:39:05.367Z,22.17
2022-08-16T19:41:35.690Z,22.16
2022-08-16T19:44:04.564Z,22.20
2022-08-16T19:46:32.734Z,22.20
2022-08-16T19:49:02.299Z,22.09
2022-08-16T19:51:32.005Z,21.97
2022-08-16T19:54:00.170Z,21.81
2022-08-16T19:56:28.169Z,21.70
2022-08-16T20:01:44.996Z,21.56
2022-08-16T20:04:17.125Z,21.49
2022-08-16T20:06:45.518Z,21.45
2022-08-16T20:09:14.799Z,21.40
2022-08-16T20:11:44.341Z,21.47
2022-08-16T20:14:24.100Z,21.44
2022-08-16T20:16:53.749Z,21.37
2022-08-16T20:19:23.122Z,21.34
2022-08-16T20:21:53.455Z,21.38
2022-08-16T20:24:37.013Z,21.28
2022-08-16T20:27:07.286Z,21.17
2022-08-16T20:29:36.821Z,21.10
2022-08-16T20:32:05.723Z,21.05
2022-08-16T20:34:35.385Z,21.01
2022-08-16T20:37:05.038Z,21.00
2022-08-16T20:39:33.191Z,21.01
2022-08-16T20:42:01.274Z,20.94
2022-08-16T20:44:29.314Z,20.94
2022-08-16T20:46:57.345Z,20.88
2022-08-16T20:49:25.387Z,20.80
2022-08-16T20:51:59.124Z,20.69
2022-08-16T20:54:28.545Z,20.57
2022-08-16T20:56:56.515Z,20.48
2022-08-16T20:59:24.340Z,20.40
2022-08-16T21:01:52.710Z,20.23
2022-08-16T21:04:21.723Z,20.10
2022-08-16T21:06:53.482Z,19.99
2022-08-16T21:09:25.649Z,19.84
2022-08-16T21:11:55.859Z,19.81
2022-08-16T21:14:24.196Z,19.75
2022-08-16T21:16:52.113Z,19.70
2022-08-16T21:19:20.471Z,19.64
2022-08-16T21:21:48.765Z,19.71
2022-08-16T21:24:16.941Z,19.79
2022-08-16T21:26:55.241Z,19.81
2022-08-16T21:29:31.619Z,19.86
2022-08-16T21:32:11.197Z,19.88
2022-08-16T21:34:39.262Z,19.79
2022-08-16T21:37:07.355Z,19.80
2022-08-16T21:39:35.490Z,19.78
2022-08-16T21:42:08.945Z,19.67
2022-08-16T21:44:38.854Z,19.59
2022-08-16T21:47:08.240Z,19.52
2022-08-16T21:49:36.765Z,19.38
2022-08-16T21:52:05.744Z,19.23
2022-08-16T21:54:33.587Z,18.96
2022-08-16T21:57:01.395Z,18.42
2022-08-16T21:59:30.618Z,18.25
2022-08-16T22:01:58.465Z,18.42
2022-08-16T22:04:38.044Z,18.54
2022-08-16T22:07:07.379Z,18.54
2022-08-16T22:09:35.392Z,18.52
2022-08-16T22:12:03.267Z,18.51
2022-08-16T22:14:32.992Z,19.14
2022-08-16T22:17:00.905Z,19.56
2022-08-16T22:19:29.403Z,20.03
2022-08-16T22:21:57.239Z,20.02
2022-08-16T22:24:25.039Z,20.03
2022-08-16T22:26:52.873Z,19.95
2022-08-16T22:29:21.850Z,19.73
2022-08-16T22:31:51.223Z,19.36
2022-08-16T22:34:19.457Z,19.15
2022-08-16T22:36:47.280Z,19.15
2022-08-16T22:39:15.639Z,19.13
2022-08-16T22:41:45.748Z,19.14
2022-08-16T22:44:14.525Z,19.30
2022-08-16T22:46:42.396Z,19.46
2022-08-16T22:49:12.422Z,19.47
2022-08-16T22:51:41.302Z,19.44
2022-08-16T22:54:44.415Z,19.38
2022-08-16T22:56:57.623Z,19.31
2022-08-16T22:59:26.010Z,19.19
2022-08-16T23:01:54.012Z,18.94
2022-08-16T23:04:23.895Z,18.72
2022-08-16T23:06:52.126Z,18.61
2022-08-16T23:09:20.137Z,18.46
2022-08-16T23:11:48.248Z,18.52
2022-08-16T23:14:16.586Z,18.52
2022-08-16T23:16:47.189Z,18.53
2022-08-16T23:19:16.588Z,18.50
2022-08-16T23:21:48.902Z,18.61
2022-08-16T23:24:19.184Z,18.75
2022-08-16T23:26:49.135Z,18.76
2022-08-16T23:29:23.398Z,18.89
2022-08-16T23:31:54.565Z,19.16
2022-08-16T23:34:22.530Z,19.10
2022-08-16T23:36:51.698Z,18.96
2022-08-16T23:39:19.603Z,18.83
2022-08-16T23:41:47.538Z,18.70
2022-08-16T23:44:57.429Z,18.70
2022-08-16T23:47:03.417Z,18.77
2022-08-16T23:49:58.988Z,18.66
2022-08-16T23:52:54.739Z,18.76
2022-08-16T23:55:10.098Z,18.67
2022-08-16T23:57:37.946Z,18.90
